sensor_id;sensor_type;location;lat;lon;timestamp;temperature;humidity
21271;DHT22;10795;50.796;3.860;2023-08-01T00:00:01;17.00;99.90
21271;DHT22;10795;50.796;3.860;2023-08-01T00:02:37;17.00;99.90
21271;DHT22;10795;50.796;3.860;2023-08-01T00:05:04;16.90;99.90
21271;DHT22;10795;50.796;3.860;2023-08-01T00:07:30;16.80;99.90
21271;DHT22;10795;50.796;3.860;2023-08-01T00:09:56;16.70;99.90
21271;DHT22;10795;50.796;3.860;2023-08-01T00:12:25;16.70;99.90
21271;DHT22;10795;50.796;3.860;2023-08-01T00:14:51;16.70;99.90
21271;DHT22;10795;50.796;3.860;2023-08-01T00:17:17;16.80;99.90
21271;DHT22;10795;50.796;3.860;2023-08-01T00:19:43;16.70;99.90
21271;DHT22;10795;50.796;3.860;2023-08-01T00:22:08;16.80;99.90
21271;DHT22;10795;50.796;3.860;2023-08-01T00:24:35;16.80;99.90
21271;DHT22;10795;50.796;3.860;2023-08-01T00:27:01;16.70;99.90
21271;DHT22;10795;50.796;3.860;2023-08-01T00:29:27;16.80;99.90
21271;DHT22;10795;50.796;3.860;2023-08-01T00:31:53;16.70;99.90
21271;DHT22;10795;50.796;3.860;2023-08-01T00:34:19;16.60;99.90
21271;DHT22;10795;50.796;3.860;2023-08-01T00:36:44;16.80;99.90
21271;DHT22;10795;50.796;3.860;2023-08-01T00:39:10;16.90;99.90
21271;DHT22;10795;50.796;3.860;2023-08-01T00:41:36;16.80;99.90
21271;DHT22;10795;50.796;3.860;2023-08-01T00:44:02;16.60;99.90
21271;DHT22;10795;50.796;3.860;2023-08-01T00:46:29;16.50;99.90
21271;DHT22;10795;50.796;3.860;2023-08-01T00:48:58;16.60;99.90
21271;DHT22;10795;50.796;3.860;2023-08-01T00:51:29;16.60;99.90
21271;DHT22;10795;50.796;3.860;2023-08-01T00:53:55;16.60;99.90
21271;DHT22;10795;50.796;3.860;2023-08-01T00:56:22;16.60;99.90
21271;DHT22;10795;50.796;3.860;2023-08-01T00:58:48;16.60;99.90
21271;DHT22;10795;50.796;3.860;2023-08-01T01:01:14;16.50;99.90
21271;DHT22;10795;50.796;3.860;2023-08-01T01:03:40;16.40;99.90
21271;DHT22;10795;50.796;3.860;2023-08-01T01:06:24;16.40;99.90
21271;DHT22;10795;50.796;3.860;2023-08-01T01:08:50;16.40;99.90
21271;DHT22;10795;50.796;3.860;2023-08-01T01:11:16;16.40;99.90
21271;DHT22;10795;50.796;3.860;2023-08-01T01:13:42;16.50;99.90
21271;DHT22;10795;50.796;3.860;2023-08-01T01:16:07;16.50;99.90
21271;DHT22;10795;50.796;3.860;2023-08-01T01:18:36;16.50;99.90
21271;DHT22;10795;50.796;3.860;2023-08-01T01:21:02;16.60;99.90
21271;DHT22;10795;50.796;3.860;2023-08-01T01:23:28;16.50;99.90
21271;DHT22;10795;50.796;3.860;2023-08-01T01:25:56;16.50;99.90
21271;DHT22;10795;50.796;3.860;2023-08-01T01:28:26;16.50;99.90
21271;DHT22;10795;50.796;3.860;2023-08-01T01:30:55;16.60;99.90
21271;DHT22;10795;50.796;3.860;2023-08-01T01:33:21;16.50;99.90
21271;DHT22;10795;50.796;3.860;2023-08-01T01:35:47;16.40;99.90
21271;DHT22;10795;50.796;3.860;2023-08-01T01:38:13;16.50;99.90
21271;DHT22;10795;50.796;3.860;2023-08-01T01:40:39;16.50;99.90
21271;DHT22;10795;50.796;3.860;2023-08-01T01:43:08;16.50;99.90
21271;DHT22;10795;50.796;3.860;2023-08-01T01:45:34;16.50;99.90
21271;DHT22;10795;50.796;3.860;2023-08-01T01:48:00;16.60;99.90
21271;DHT22;10795;50.796;3.860;2023-08-01T01:50:26;16.50;99.90
21271;DHT22;10795;50.796;3.860;2023-08-01T01:52:52;16.40;99.90
21271;DHT22;10795;50.796;3.860;2023-08-01T01:55:18;16.60;99.90
21271;DHT22;10795;50.796;3.860;2023-08-01T01:57:44;16.50;99.90
21271;DHT22;10795;50.796;3.860;2023-08-01T02:00:10;16.40;99.90
21271;DHT22;10795;50.796;3.860;2023-08-01T02:02:39;16.20;99.90
21271;DHT22;10795;50.796;3.860;2023-08-01T02:05:05;16.30;99.90
21271;DHT22;10795;50.796;3.860;2023-08-01T02:07:31;16.40;99.90
21271;DHT22;10795;50.796;3.860;2023-08-01T02:10:00;16.50;99.90
21271;DHT22;10795;50.796;3.860;2023-08-01T02:12:27;16.40;99.90
21271;DHT22;10795;50.796;3.860;2023-08-01T02:14:57;16.40;99.90
21271;DHT22;10795;50.796;3.860;2023-08-01T02:17:24;16.40;99.90
21271;DHT22;10795;50.796;3.860;2023-08-01T02:19:50;16.40;99.90
21271;DHT22;10795;50.796;3.860;2023-08-01T02:22:17;16.30;99.90
21271;DHT22;10795;50.796;3.860;2023-08-01T02:24:43;16.20;99.90
21271;DHT22;10795;50.796;3.860;2023-08-01T02:27:09;16.20;99.90
21271;DHT22;10795;50.796;3.860;2023-08-01T02:29:34;16.30;99.90
21271;DHT22;10795;50.796;3.860;2023-08-01T02:32:00;16.20;99.90
21271;DHT22;10795;50.796;3.860;2023-08-01T02:34:26;16.10;99.90
21271;DHT22;10795;50.796;3.860;2023-08-01T02:36:52;16.10;99.90
21271;DHT22;10795;50.796;3.860;2023-08-01T02:39:18;16.00;99.90
21271;DHT22;10795;50.796;3.860;2023-08-01T02:41:44;16.00;99.90
21271;DHT22;10795;50.796;3.860;2023-08-01T02:44:13;16.20;99.90
21271;DHT22;10795;50.796;3.860;2023-08-01T02:46:39;16.10;99.90
21271;DHT22;10795;50.796;3.860;2023-08-01T02:49:05;16.00;99.90
21271;DHT22;10795;50.796;3.860;2023-08-01T02:51:30;16.00;99.90
21271;DHT22;10795;50.796;3.860;2023-08-01T02:53:56;16.20;99.90
21271;DHT22;10795;50.796;3.860;2023-08-01T02:56:24;16.20;99.90
21271;DHT22;10795;50.796;3.860;2023-08-01T02:58:50;16.30;99.90
21271;DHT22;10795;50.796;3.860;2023-08-01T03:01:19;16.30;99.90
21271;DHT22;10795;50.796;3.860;2023-08-01T03:03:45;16.30;99.90
21271;DHT22;10795;50.796;3.860;2023-08-01T03:06:12;16.20;99.90
21271;DHT22;10795;50.796;3.860;2023-08-01T03:08:38;16.20;99.90
21271;DHT22;10795;50.796;3.860;2023-08-01T03:11:08;16.10;99.90
21271;DHT22;10795;50.796;3.860;2023-08-01T03:13:33;16.00;99.90
21271;DHT22;10795;50.796;3.860;2023-08-01T03:15:59;16.10;99.90
21271;DHT22;10795;50.796;3.860;2023-08-01T03:18:25;16.00;99.90
21271;DHT22;10795;50.796;3.860;2023-08-01T03:20:51;16.00;99.90
21271;DHT22;10795;50.796;3.860;2023-08-01T03:23:17;16.00;99.90
21271;DHT22;10795;50.796;3.860;2023-08-01T03:25:43;16.10;99.90
21271;DHT22;10795;50.796;3.860;2023-08-01T03:28:09;16.10;99.90
21271;DHT22;10795;50.796;3.860;2023-08-01T03:30:35;16.10;99.90
21271;DHT22;10795;50.796;3.860;2023-08-01T03:33:04;16.10;99.90
21271;DHT22;10795;50.796;3.860;2023-08-01T03:35:30;16.00;99.90
21271;DHT22;10795;50.796;3.860;2023-08-01T03:37:58;15.90;99.90
21271;DHT22;10795;50.796;3.860;2023-08-01T03:40:24;15.90;99.90
21271;DHT22;10795;50.796;3.860;2023-08-01T03:42:53;16.00;99.90
21271;DHT22;10795;50.796;3.860;2023-08-01T03:45:21;15.90;99.90
21271;DHT22;10795;50.796;3.860;2023-08-01T03:47:47;16.00;99.90
21271;DHT22;10795;50.796;3.860;2023-08-01T03:50:13;16.10;99.90
21271;DHT22;10795;50.796;3.860;2023-08-01T03:52:39;16.20;99.90
21271;DHT22;10795;50.796;3.860;2023-08-01T03:55:08;16.20;99.90
21271;DHT22;10795;50.796;3.860;2023-08-01T03:57:34;16.30;99.90
21271;DHT22;10795;50.796;3.860;2023-08-01T04:00:02;16.20;99.90
21271;DHT22;10795;50.796;3.860;2023-08-01T04:02:38;16.00;99.90
21271;DHT22;10795;50.796;3.860;2023-08-01T04:05:04;16.00;99.90
21271;DHT22;10795;50.796;3.860;2023-08-01T04:07:30;16.10;99.90
21271;DHT22;10795;50.796;3.860;2023-08-01T04:09:56;16.10;99.90
21271;DHT22;10795;50.796;3.860;2023-08-01T04:12:22;16.10;99.90
21271;DHT22;10795;50.796;3.860;2023-08-01T04:14:50;16.10;99.90
21271;DHT22;10795;50.796;3.860;2023-08-01T04:17:16;16.20;99.90
21271;DHT22;10795;50.796;3.860;2023-08-01T04:19:42;16.10;99.90
21271;DHT22;10795;50.796;3.860;2023-08-01T04:22:08;16.10;99.90
21271;DHT22;10795;50.796;3.860;2023-08-01T04:24:34;16.10;99.90
21271;DHT22;10795;50.796;3.860;2023-08-01T04:27:02;16.00;99.90
21271;DHT22;10795;50.796;3.860;2023-08-01T04:29:28;16.00;99.90
21271;DHT22;10795;50.796;3.860;2023-08-01T04:31:54;16.00;99.90
21271;DHT22;10795;50.796;3.860;2023-08-01T04:34:20;16.00;99.90
21271;DHT22;10795;50.796;3.860;2023-08-01T04:36:46;16.10;99.90
21271;DHT22;10795;50.796;3.860;2023-08-01T04:39:12;16.00;99.90
21271;DHT22;10795;50.796;3.860;2023-08-01T04:41:38;16.00;99.90
21271;DHT22;10795;50.796;3.860;2023-08-01T04:44:03;16.10;99.90
21271;DHT22;10795;50.796;3.860;2023-08-01T04:46:32;16.10;99.90
21271;DHT22;10795;50.796;3.860;2023-08-01T04:48:58;16.10;99.90
21271;DHT22;10795;50.796;3.860;2023-08-01T04:51:27;16.10;99.90
21271;DHT22;10795;50.796;3.860;2023-08-01T04:53:52;16.20;99.90
21271;DHT22;10795;50.796;3.860;2023-08-01T04:56:18;16.20;99.90
21271;DHT22;10795;50.796;3.860;2023-08-01T04:58:44;16.20;99.90
21271;DHT22;10795;50.796;3.860;2023-08-01T05:01:13;16.30;99.90
21271;DHT22;10795;50.796;3.860;2023-08-01T05:03:41;16.30;99.90
21271;DHT22;10795;50.796;3.860;2023-08-01T05:06:07;16.30;99.90
21271;DHT22;10795;50.796;3.860;2023-08-01T05:08:36;16.30;99.90
21271;DHT22;10795;50.796;3.860;2023-08-01T05:11:01;16.40;99.90
21271;DHT22;10795;50.796;3.860;2023-08-01T05:13:28;16.20;99.90
21271;DHT22;10795;50.796;3.860;2023-08-01T05:15:53;16.30;99.90
21271;DHT22;10795;50.796;3.860;2023-08-01T05:18:19;16.30;99.90
21271;DHT22;10795;50.796;3.860;2023-08-01T05:20:45;16.30;99.90
21271;DHT22;10795;50.796;3.860;2023-08-01T05:23:11;16.40;99.90
21271;DHT22;10795;50.796;3.860;2023-08-01T05:25:40;16.40;99.90
21271;DHT22;10795;50.796;3.860;2023-08-01T05:28:05;16.40;99.90
21271;DHT22;10795;50.796;3.860;2023-08-01T05:30:33;16.30;99.90
21271;DHT22;10795;50.796;3.860;2023-08-01T05:32:59;16.30;99.90
21271;DHT22;10795;50.796;3.860;2023-08-01T05:35:26;16.20;99.90
21271;DHT22;10795;50.796;3.860;2023-08-01T05:37:51;16.30;99.90
21271;DHT22;10795;50.796;3.860;2023-08-01T05:40:19;16.40;99.90
21271;DHT22;10795;50.796;3.860;2023-08-01T05:42:48;16.40;99.90
21271;DHT22;10795;50.796;3.860;2023-08-01T05:45:23;16.30;99.90
21271;DHT22;10795;50.796;3.860;2023-08-01T05:48:00;16.20;99.90
21271;DHT22;10795;50.796;3.860;2023-08-01T05:51:07;16.30;99.90
21271;DHT22;10795;50.796;3.860;2023-08-01T05:53:36;16.40;99.90
21271;DHT22;10795;50.796;3.860;2023-08-01T05:56:07;16.40;99.90
21271;DHT22;10795;50.796;3.860;2023-08-01T05:58:33;16.40;99.90
21271;DHT22;10795;50.796;3.860;2023-08-01T06:00:59;16.60;99.90
21271;DHT22;10795;50.796;3.860;2023-08-01T06:03:25;16.50;99.90
21271;DHT22;10795;50.796;3.860;2023-08-01T06:05:50;16.50;99.90
21271;DHT22;10795;50.796;3.860;2023-08-01T06:08:16;16.50;99.90
21271;DHT22;10795;50.796;3.860;2023-08-01T06:10:44;16.50;99.90
21271;DHT22;10795;50.796;3.860;2023-08-01T06:13:10;16.50;99.90
21271;DHT22;10795;50.796;3.860;2023-08-01T06:15:36;16.60;99.90
21271;DHT22;10795;50.796;3.860;2023-08-01T06:18:02;16.60;99.90
21271;DHT22;10795;50.796;3.860;2023-08-01T06:20:28;16.60;99.90
21271;DHT22;10795;50.796;3.860;2023-08-01T06:22:54;16.60;99.90
21271;DHT22;10795;50.796;3.860;2023-08-01T06:25:20;16.60;99.90
21271;DHT22;10795;50.796;3.860;2023-08-01T06:27:46;16.70;99.90
21271;DHT22;10795;50.796;3.860;2023-08-01T06:30:12;16.80;99.90
21271;DHT22;10795;50.796;3.860;2023-08-01T06:32:37;16.90;99.90
21271;DHT22;10795;50.796;3.860;2023-08-01T06:35:03;16.90;99.90
21271;DHT22;10795;50.796;3.860;2023-08-01T06:37:29;17.10;99.90
21271;DHT22;10795;50.796;3.860;2023-08-01T06:39:56;17.20;99.90
21271;DHT22;10795;50.796;3.860;2023-08-01T06:42:22;17.50;99.90
21271;DHT22;10795;50.796;3.860;2023-08-01T06:44:48;17.60;99.90
21271;DHT22;10795;50.796;3.860;2023-08-01T06:47:14;17.70;99.90
21271;DHT22;10795;50.796;3.860;2023-08-01T06:49:42;17.80;99.90
21271;DHT22;10795;50.796;3.860;2023-08-01T06:52:08;17.80;99.90
21271;DHT22;10795;50.796;3.860;2023-08-01T06:54:36;17.80;99.90
21271;DHT22;10795;50.796;3.860;2023-08-01T06:57:02;18.20;99.90
21271;DHT22;10795;50.796;3.860;2023-08-01T06:59:28;18.10;99.90
21271;DHT22;10795;50.796;3.860;2023-08-01T07:01:53;18.00;99.90
21271;DHT22;10795;50.796;3.860;2023-08-01T07:04:19;18.00;99.90
21271;DHT22;10795;50.796;3.860;2023-08-01T07:06:45;18.00;99.90
21271;DHT22;10795;50.796;3.860;2023-08-01T07:09:11;18.10;99.90
21271;DHT22;10795;50.796;3.860;2023-08-01T07:11:37;18.30;99.90
21271;DHT22;10795;50.796;3.860;2023-08-01T07:14:02;18.60;99.90
21271;DHT22;10795;50.796;3.860;2023-08-01T07:16:28;18.70;99.90
21271;DHT22;10795;50.796;3.860;2023-08-01T07:18:55;18.60;99.90
21271;DHT22;10795;50.796;3.860;2023-08-01T07:21:21;18.40;99.90
21271;DHT22;10795;50.796;3.860;2023-08-01T07:23:47;18.40;99.90
21271;DHT22;10795;50.796;3.860;2023-08-01T07:26:14;18.50;99.90
21271;DHT22;10795;50.796;3.860;2023-08-01T07:28:42;18.80;99.90
21271;DHT22;10795;50.796;3.860;2023-08-01T07:31:08;19.00;99.90
21271;DHT22;10795;50.796;3.860;2023-08-01T07:33:36;19.40;99.90
21271;DHT22;10795;50.796;3.860;2023-08-01T07:36:02;19.70;99.90
21271;DHT22;10795;50.796;3.860;2023-08-01T07:38:28;20.00;99.90
21271;DHT22;10795;50.796;3.860;2023-08-01T07:40:55;19.90;99.90
21271;DHT22;10795;50.796;3.860;2023-08-01T07:43:21;20.20;99.90
21271;DHT22;10795;50.796;3.860;2023-08-01T07:45:46;20.00;99.90
21271;DHT22;10795;50.796;3.860;2023-08-01T07:48:16;19.80;99.90
21271;DHT22;10795;50.796;3.860;2023-08-01T07:50:42;19.50;99.90
21271;DHT22;10795;50.796;3.860;2023-08-01T07:53:07;19.90;99.90
21271;DHT22;10795;50.796;3.860;2023-08-01T07:55:34;19.90;99.90
21271;DHT22;10795;50.796;3.860;2023-08-01T07:58:00;19.90;99.90
21271;DHT22;10795;50.796;3.860;2023-08-01T08:00:26;20.30;99.90
21271;DHT22;10795;50.796;3.860;2023-08-01T08:02:53;20.40;99.90
21271;DHT22;10795;50.796;3.860;2023-08-01T08:05:19;20.00;99.90
21271;DHT22;10795;50.796;3.860;2023-08-01T08:07:45;20.80;99.90
21271;DHT22;10795;50.796;3.860;2023-08-01T08:10:11;20.60;99.90
21271;DHT22;10795;50.796;3.860;2023-08-01T08:12:37;20.80;99.90
21271;DHT22;10795;50.796;3.860;2023-08-01T08:15:03;20.80;99.90
21271;DHT22;10795;50.796;3.860;2023-08-01T08:17:29;20.80;99.90
21271;DHT22;10795;50.796;3.860;2023-08-01T08:19:54;21.20;99.90
21271;DHT22;10795;50.796;3.860;2023-08-01T08:22:23;21.40;99.90
21271;DHT22;10795;50.796;3.860;2023-08-01T08:24:49;21.50;99.90
21271;DHT22;10795;50.796;3.860;2023-08-01T08:27:15;22.10;99.90
21271;DHT22;10795;50.796;3.860;2023-08-01T08:29:41;22.10;99.90
21271;DHT22;10795;50.796;3.860;2023-08-01T08:32:07;22.40;99.90
21271;DHT22;10795;50.796;3.860;2023-08-01T08:34:35;22.70;99.90
21271;DHT22;10795;50.796;3.860;2023-08-01T08:37:01;22.80;99.90
21271;DHT22;10795;50.796;3.860;2023-08-01T08:39:27;22.70;99.90
21271;DHT22;10795;50.796;3.860;2023-08-01T08:41:53;22.50;99.90
21271;DHT22;10795;50.796;3.860;2023-08-01T08:44:20;22.30;99.90
21271;DHT22;10795;50.796;3.860;2023-08-01T08:46:51;21.90;99.90
21271;DHT22;10795;50.796;3.860;2023-08-01T08:49:19;22.10;99.90
21271;DHT22;10795;50.796;3.860;2023-08-01T08:51:46;22.00;99.90
21271;DHT22;10795;50.796;3.860;2023-08-01T08:54:13;22.20;99.90
21271;DHT22;10795;50.796;3.860;2023-08-01T08:56:40;22.30;99.90
21271;DHT22;10795;50.796;3.860;2023-08-01T08:59:08;22.00;99.90
21271;DHT22;10795;50.796;3.860;2023-08-01T09:01:36;22.20;99.90
21271;DHT22;10795;50.796;3.860;2023-08-01T09:04:03;21.80;99.90
21271;DHT22;10795;50.796;3.860;2023-08-01T09:06:31;22.00;99.90
21271;DHT22;10795;50.796;3.860;2023-08-01T09:09:10;22.10;99.90
21271;DHT22;10795;50.796;3.860;2023-08-01T09:11:49;21.90;99.90
21271;DHT22;10795;50.796;3.860;2023-08-01T09:14:16;22.10;99.90
21271;DHT22;10795;50.796;3.860;2023-08-01T09:16:43;22.00;99.90
21271;DHT22;10795;50.796;3.860;2023-08-01T09:19:10;22.20;99.90
21271;DHT22;10795;50.796;3.860;2023-08-01T09:21:39;22.50;99.90
21271;DHT22;10795;50.796;3.860;2023-08-01T09:24:09;22.20;99.90
21271;DHT22;10795;50.796;3.860;2023-08-01T09:26:36;21.90;99.90
21271;DHT22;10795;50.796;3.860;2023-08-01T09:29:02;21.80;99.90
21271;DHT22;10795;50.796;3.860;2023-08-01T09:31:37;22.30;99.90
21271;DHT22;10795;50.796;3.860;2023-08-01T09:34:04;22.60;99.90
21271;DHT22;10795;50.796;3.860;2023-08-01T09:36:33;23.20;99.90
21271;DHT22;10795;50.796;3.860;2023-08-01T09:39:01;23.60;99.90
21271;DHT22;10795;50.796;3.860;2023-08-01T09:41:28;23.00;99.90
21271;DHT22;10795;50.796;3.860;2023-08-01T09:43:55;23.40;99.90
21271;DHT22;10795;50.796;3.860;2023-08-01T09:46:21;23.30;99.90
21271;DHT22;10795;50.796;3.860;2023-08-01T09:48:47;23.40;99.90
21271;DHT22;10795;50.796;3.860;2023-08-01T09:51:14;23.70;99.90
21271;DHT22;10795;50.796;3.860;2023-08-01T09:53:55;24.10;99.90
21271;DHT22;10795;50.796;3.860;2023-08-01T09:56:23;24.20;99.90
21271;DHT22;10795;50.796;3.860;2023-08-01T09:58:50;24.40;99.90
21271;DHT22;10795;50.796;3.860;2023-08-01T10:01:18;23.70;99.90
21271;DHT22;10795;50.796;3.860;2023-08-01T10:03:46;23.70;99.90
21271;DHT22;10795;50.796;3.860;2023-08-01T10:06:20;24.00;99.90
21271;DHT22;10795;50.796;3.860;2023-08-01T10:08:47;23.70;99.90
21271;DHT22;10795;50.796;3.860;2023-08-01T10:11:19;24.10;99.90
21271;DHT22;10795;50.796;3.860;2023-08-01T10:13:46;24.40;99.90
21271;DHT22;10795;50.796;3.860;2023-08-01T10:16:13;24.10;99.90
21271;DHT22;10795;50.796;3.860;2023-08-01T10:18:40;23.70;99.90
21271;DHT22;10795;50.796;3.860;2023-08-01T10:21:08;23.30;99.90
21271;DHT22;10795;50.796;3.860;2023-08-01T10:23:35;23.60;99.90
21271;DHT22;10795;50.796;3.860;2023-08-01T10:26:05;23.60;99.90
21271;DHT22;10795;50.796;3.860;2023-08-01T10:28:36;23.60;99.90
21271;DHT22;10795;50.796;3.860;2023-08-01T10:31:16;24.20;99.90
21271;DHT22;10795;50.796;3.860;2023-08-01T10:33:44;24.40;99.90
21271;DHT22;10795;50.796;3.860;2023-08-01T10:36:15;24.20;99.90
21271;DHT22;10795;50.796;3.860;2023-08-01T10:38:50;24.00;99.90
21271;DHT22;10795;50.796;3.860;2023-08-01T10:41:28;24.40;99.90
21271;DHT22;10795;50.796;3.860;2023-08-01T10:44:10;24.80;99.90
21271;DHT22;10795;50.796;3.860;2023-08-01T10:47:00;24.40;99.90
21271;DHT22;10795;50.796;3.860;2023-08-01T10:49:52;24.90;99.90
21271;DHT22;10795;50.796;3.860;2023-08-01T10:52:24;24.00;99.90
21271;DHT22;10795;50.796;3.860;2023-08-01T10:55:03;23.40;99.90
21271;DHT22;10795;50.796;3.860;2023-08-01T10:57:34;23.50;99.90
21271;DHT22;10795;50.796;3.860;2023-08-01T11:00:00;23.50;99.90
21271;DHT22;10795;50.796;3.860;2023-08-01T11:02:28;23.10;99.90
21271;DHT22;10795;50.796;3.860;2023-08-01T11:05:04;23.60;99.90
21271;DHT22;10795;50.796;3.860;2023-08-01T11:07:30;23.50;99.90
21271;DHT22;10795;50.796;3.860;2023-08-01T11:10:11;23.20;99.90
21271;DHT22;10795;50.796;3.860;2023-08-01T11:12:38;23.20;99.90
21271;DHT22;10795;50.796;3.860;2023-08-01T11:15:06;23.60;99.90
21271;DHT22;10795;50.796;3.860;2023-08-01T11:17:40;23.90;99.90
21271;DHT22;10795;50.796;3.860;2023-08-01T11:20:11;24.40;99.90
21271;DHT22;10795;50.796;3.860;2023-08-01T11:22:49;24.70;99.90
21271;DHT22;10795;50.796;3.860;2023-08-01T11:25:18;24.90;99.90
21271;DHT22;10795;50.796;3.860;2023-08-01T11:27:46;25.00;99.90
21271;DHT22;10795;50.796;3.860;2023-08-01T11:30:12;24.30;99.90
21271;DHT22;10795;50.796;3.860;2023-08-01T11:32:41;23.80;99.90
21271;DHT22;10795;50.796;3.860;2023-08-01T11:35:19;23.90;99.90
21271;DHT22;10795;50.796;3.860;2023-08-01T11:37:45;24.30;99.90
21271;DHT22;10795;50.796;3.860;2023-08-01T11:40:12;24.20;99.90
21271;DHT22;10795;50.796;3.860;2023-08-01T11:42:38;24.30;99.90
21271;DHT22;10795;50.796;3.860;2023-08-01T11:45:13;24.40;99.90
21271;DHT22;10795;50.796;3.860;2023-08-01T11:47:47;24.20;99.90
21271;DHT22;10795;50.796;3.860;2023-08-01T11:50:13;24.20;99.90
21271;DHT22;10795;50.796;3.860;2023-08-01T11:52:39;24.00;99.90
21271;DHT22;10795;50.796;3.860;2023-08-01T11:55:06;23.60;99.90
21271;DHT22;10795;50.796;3.860;2023-08-01T11:57:32;23.70;99.90
21271;DHT22;10795;50.796;3.860;2023-08-01T11:59:57;23.40;99.90
21271;DHT22;10795;50.796;3.860;2023-08-01T12:02:27;23.50;99.90
21271;DHT22;10795;50.796;3.860;2023-08-01T12:04:54;23.60;99.90
21271;DHT22;10795;50.796;3.860;2023-08-01T12:07:20;23.40;99.90
21271;DHT22;10795;50.796;3.860;2023-08-01T12:09:56;23.70;99.90
21271;DHT22;10795;50.796;3.860;2023-08-01T12:12:23;23.20;99.90
21271;DHT22;10795;50.796;3.860;2023-08-01T12:14:48;23.00;99.90
21271;DHT22;10795;50.796;3.860;2023-08-01T12:17:14;23.20;99.90
21271;DHT22;10795;50.796;3.860;2023-08-01T12:19:40;23.10;99.90
21271;DHT22;10795;50.796;3.860;2023-08-01T12:22:06;23.00;99.90
21271;DHT22;10795;50.796;3.860;2023-08-01T12:24:32;22.60;99.90
21271;DHT22;10795;50.796;3.860;2023-08-01T12:26:59;22.90;99.90
21271;DHT22;10795;50.796;3.860;2023-08-01T12:29:25;23.20;99.90
21271;DHT22;10795;50.796;3.860;2023-08-01T12:31:50;23.20;99.90
21271;DHT22;10795;50.796;3.860;2023-08-01T12:34:17;23.10;99.90
21271;DHT22;10795;50.796;3.860;2023-08-01T12:36:43;22.70;99.90
21271;DHT22;10795;50.796;3.860;2023-08-01T12:39:09;22.50;99.90
21271;DHT22;10795;50.796;3.860;2023-08-01T12:41:37;22.40;99.90
21271;DHT22;10795;50.796;3.860;2023-08-01T12:44:04;22.50;99.90
21271;DHT22;10795;50.796;3.860;2023-08-01T12:46:30;22.60;99.90
21271;DHT22;10795;50.796;3.860;2023-08-01T12:48:56;22.30;99.90
21271;DHT22;10795;50.796;3.860;2023-08-01T12:51:22;22.30;99.90
21271;DHT22;10795;50.796;3.860;2023-08-01T12:53:47;22.80;99.90
21271;DHT22;10795;50.796;3.860;2023-08-01T12:56:14;22.80;99.90
21271;DHT22;10795;50.796;3.860;2023-08-01T12:58:39;22.80;99.90
21271;DHT22;10795;50.796;3.860;2023-08-01T13:01:06;22.70;99.90
21271;DHT22;10795;50.796;3.860;2023-08-01T13:03:32;22.30;99.90
21271;DHT22;10795;50.796;3.860;2023-08-01T13:05:58;22.70;99.90
21271;DHT22;10795;50.796;3.860;2023-08-01T13:08:24;23.00;99.90
21271;DHT22;10795;50.796;3.860;2023-08-01T13:10:49;23.20;99.90
21271;DHT22;10795;50.796;3.860;2023-08-01T13:13:16;23.40;99.90
21271;DHT22;10795;50.796;3.860;2023-08-01T13:15:42;23.60;99.90
21271;DHT22;10795;50.796;3.860;2023-08-01T13:18:09;23.60;99.90
21271;DHT22;10795;50.796;3.860;2023-08-01T13:20:35;23.60;99.90
21271;DHT22;10795;50.796;3.860;2023-08-01T13:23:02;23.60;99.90
21271;DHT22;10795;50.796;3.860;2023-08-01T13:25:29;23.80;99.90
21271;DHT22;10795;50.796;3.860;2023-08-01T13:27:55;23.70;99.90
21271;DHT22;10795;50.796;3.860;2023-08-01T13:30:21;23.70;99.90
21271;DHT22;10795;50.796;3.860;2023-08-01T13:32:46;23.90;99.90
21271;DHT22;10795;50.796;3.860;2023-08-01T13:35:13;23.10;99.90
21271;DHT22;10795;50.796;3.860;2023-08-01T13:37:39;23.10;99.90
21271;DHT22;10795;50.796;3.860;2023-08-01T13:40:05;23.50;99.90
21271;DHT22;10795;50.796;3.860;2023-08-01T13:42:31;24.00;99.90
21271;DHT22;10795;50.796;3.860;2023-08-01T13:44:58;23.50;99.90
21271;DHT22;10795;50.796;3.860;2023-08-01T13:47:24;23.50;99.90
21271;DHT22;10795;50.796;3.860;2023-08-01T13:49:50;23.00;99.90
21271;DHT22;10795;50.796;3.860;2023-08-01T13:52:16;22.40;99.90
21271;DHT22;10795;50.796;3.860;2023-08-01T13:54:42;22.10;99.90
21271;DHT22;10795;50.796;3.860;2023-08-01T13:57:08;22.60;99.90
21271;DHT22;10795;50.796;3.860;2023-08-01T13:59:33;22.20;99.90
21271;DHT22;10795;50.796;3.860;2023-08-01T14:01:59;22.00;99.90
21271;DHT22;10795;50.796;3.860;2023-08-01T14:04:25;22.40;99.90
21271;DHT22;10795;50.796;3.860;2023-08-01T14:06:51;22.50;99.90
21271;DHT22;10795;50.796;3.860;2023-08-01T14:09:17;22.50;99.90
21271;DHT22;10795;50.796;3.860;2023-08-01T14:11:42;22.60;99.90
21271;DHT22;10795;50.796;3.860;2023-08-01T14:14:08;22.50;99.90
21271;DHT22;10795;50.796;3.860;2023-08-01T14:16:34;22.40;99.90
21271;DHT22;10795;50.796;3.860;2023-08-01T14:19:00;22.10;99.90
21271;DHT22;10795;50.796;3.860;2023-08-01T14:21:26;22.10;99.90
21271;DHT22;10795;50.796;3.860;2023-08-01T14:23:52;22.10;99.90
21271;DHT22;10795;50.796;3.860;2023-08-01T14:26:17;21.80;99.90
21271;DHT22;10795;50.796;3.860;2023-08-01T14:28:43;21.60;99.90
21271;DHT22;10795;50.796;3.860;2023-08-01T14:31:09;21.40;99.90
21271;DHT22;10795;50.796;3.860;2023-08-01T14:33:35;21.70;99.90
21271;DHT22;10795;50.796;3.860;2023-08-01T14:36:01;21.10;99.90
21271;DHT22;10795;50.796;3.860;2023-08-01T14:38:27;21.10;99.90
21271;DHT22;10795;50.796;3.860;2023-08-01T14:40:53;21.00;99.90
21271;DHT22;10795;50.796;3.860;2023-08-01T14:43:19;20.90;99.90
21271;DHT22;10795;50.796;3.860;2023-08-01T14:45:45;20.80;99.90
21271;DHT22;10795;50.796;3.860;2023-08-01T14:48:11;21.30;99.90
21271;DHT22;10795;50.796;3.860;2023-08-01T14:50:37;21.20;99.90
21271;DHT22;10795;50.796;3.860;2023-08-01T14:53:04;20.90;99.90
21271;DHT22;10795;50.796;3.860;2023-08-01T14:55:32;21.00;99.90
21271;DHT22;10795;50.796;3.860;2023-08-01T14:57:58;21.00;99.90
21271;DHT22;10795;50.796;3.860;2023-08-01T15:00:24;21.30;99.90
21271;DHT22;10795;50.796;3.860;2023-08-01T15:02:50;21.20;99.90
21271;DHT22;10795;50.796;3.860;2023-08-01T15:05:17;21.50;99.90
21271;DHT22;10795;50.796;3.860;2023-08-01T15:07:43;21.70;99.90
21271;DHT22;10795;50.796;3.860;2023-08-01T15:10:11;21.90;99.90
21271;DHT22;10795;50.796;3.860;2023-08-01T15:12:37;21.80;99.90
21271;DHT22;10795;50.796;3.860;2023-08-01T15:15:05;21.70;99.90
21271;DHT22;10795;50.796;3.860;2023-08-01T15:17:31;21.60;99.90
21271;DHT22;10795;50.796;3.860;2023-08-01T15:19:56;21.50;99.90
21271;DHT22;10795;50.796;3.860;2023-08-01T15:22:22;21.20;99.90
21271;DHT22;10795;50.796;3.860;2023-08-01T15:24:48;21.10;99.90
21271;DHT22;10795;50.796;3.860;2023-08-01T15:27:14;20.80;99.90
21271;DHT22;10795;50.796;3.860;2023-08-01T15:29:40;20.60;99.90